createdAt,value
2018-07-16T00:01:35.896Z,4.43
2018-07-16T00:04:04.520Z,3.80
2018-07-16T00:06:33.258Z,4.07
2018-07-16T00:09:01.841Z,4.53
2018-07-16T00:11:30.491Z,5.30
2018-07-16T00:13:59.052Z,4.30
2018-07-16T00:16:27.576Z,3.70
2018-07-16T00:18:56.661Z,5.17
2018-07-16T00:21:25.211Z,4.27
2018-07-16T00:23:53.788Z,4.80
2018-07-16T00:26:22.492Z,4.30
2018-07-16T00:28:51.005Z,3.53
2018-07-16T00:31:19.862Z,3.17
2018-07-16T00:33:48.444Z,3.13
2018-07-16T00:36:16.964Z,3.70
2018-07-16T00:38:45.552Z,4.07
2018-07-16T00:41:14.152Z,3.33
2018-07-16T00:43:43.528Z,3.70
2018-07-16T00:46:12.057Z,2.90
2018-07-16T00:48:40.646Z,4.10
2018-07-16T00:51:09.273Z,2.70
2018-07-16T00:53:37.828Z,3.07
2018-07-16T00:56:06.468Z,3.27
2018-07-16T00:58:35.049Z,3.40
2018-07-16T01:01:03.739Z,3.23
2018-07-16T01:03:32.341Z,3.40
2018-07-16T01:06:00.928Z,3.70
2018-07-16T01:08:29.552Z,2.80
2018-07-16T01:10:58.216Z,3.13
2018-07-16T01:13:26.800Z,3.30
2018-07-16T01:15:55.481Z,2.93
2018-07-16T01:18:24.008Z,3.23
2018-07-16T01:20:52.554Z,3.27
2018-07-16T01:23:21.228Z,2.50
2018-07-16T01:25:49.800Z,2.87
2018-07-16T01:28:18.365Z,3.70
2018-07-16T01:30:47.262Z,2.93
2018-07-16T01:33:16.160Z,3.13
2018-07-16T01:35:44.677Z,2.80
2018-07-16T01:38:13.277Z,3.20
2018-07-16T01:40:41.925Z,3.73
2018-07-16T01:43:10.576Z,3.37
2018-07-16T01:45:39.554Z,2.57
2018-07-16T01:48:08.392Z,3.00
2018-07-16T01:50:36.924Z,3.23
2018-07-16T01:53:05.487Z,3.00
2018-07-16T01:55:34.129Z,3.47
2018-07-16T01:58:02.709Z,3.17
2018-07-16T02:00:31.398Z,3.30
2018-07-16T02:02:59.988Z,3.60
2018-07-16T02:05:28.720Z,3.63
2018-07-16T02:07:57.337Z,3.33
2018-07-16T02:10:25.960Z,3.90
2018-07-16T02:12:54.577Z,3.33
2018-07-16T02:15:23.156Z,3.53
2018-07-16T02:17:51.884Z,3.30
2018-07-16T02:20:20.464Z,2.60
2018-07-16T02:22:49.108Z,3.90
2018-07-16T02:25:17.761Z,4.00
2018-07-16T02:27:46.358Z,3.60
2018-07-16T02:30:14.964Z,3.27
2018-07-16T02:32:43.540Z,3.77
2018-07-16T02:35:12.321Z,2.77
2018-07-16T02:37:40.960Z,3.17
2018-07-16T02:40:09.557Z,3.50
2018-07-16T02:42:38.476Z,4.00
2018-07-16T02:45:07.004Z,3.53
2018-07-16T02:47:35.773Z,3.70
2018-07-16T02:50:04.444Z,3.00
2018-07-16T02:52:33.253Z,2.93
2018-07-16T02:55:01.852Z,3.00
2018-07-16T02:57:30.420Z,3.67
2018-07-16T02:59:59.093Z,3.10
2018-07-16T03:02:27.649Z,3.60
2018-07-16T03:04:56.235Z,3.23
2018-07-16T03:07:24.849Z,4.13
2018-07-16T03:09:53.429Z,3.10
2018-07-16T03:12:22.348Z,4.90
2018-07-16T03:14:50.978Z,4.00
2018-07-16T03:17:19.628Z,3.60
2018-07-16T03:19:48.256Z,3.87
2018-07-16T03:22:16.801Z,3.70
2018-07-16T03:24:45.556Z,4.60
2018-07-16T03:27:14.284Z,3.83
2018-07-16T03:29:42.912Z,4.60
2018-07-16T03:32:11.923Z,4.60
2018-07-16T03:34:40.540Z,4.70
2018-07-16T03:37:09.268Z,4.50
2018-07-16T03:39:37.888Z,4.17
2018-07-16T03:42:06.568Z,3.47
2018-07-16T03:44:35.149Z,3.33
2018-07-16T03:47:03.708Z,3.77
2018-07-16T03:49:32.529Z,4.10
2018-07-16T03:52:01.077Z,4.73
2018-07-16T03:54:30.044Z,3.27
2018-07-16T03:56:58.585Z,4.20
2018-07-16T03:59:27.240Z,4.20
2018-07-16T04:01:55.913Z,4.27
2018-07-16T04:04:24.492Z,5.50
2018-07-16T04:06:53.056Z,4.70
2018-07-16T04:09:21.608Z,3.93
2018-07-16T04:11:50.275Z,4.83
2018-07-16T04:14:18.928Z,5.17
2018-07-16T04:16:47.684Z,4.93
2018-07-16T04:19:16.306Z,4.23
2018-07-16T04:21:44.900Z,4.40
2018-07-16T04:24:13.568Z,4.90
2018-07-16T04:26:42.180Z,4.63
2018-07-16T04:29:10.705Z,6.17
2018-07-16T04:31:39.261Z,5.40
2018-07-16T04:34:07.881Z,5.70
2018-07-16T04:36:36.437Z,5.67
2018-07-16T04:39:06.198Z,6.27
2018-07-16T04:41:35.513Z,6.53
2018-07-16T04:44:04.185Z,5.97
2018-07-16T04:46:32.760Z,7.83
2018-07-16T04:49:01.276Z,6.90
2018-07-16T04:51:29.915Z,6.20
2018-07-16T04:53:58.436Z,7.00
2018-07-16T04:56:27.072Z,7.07
2018-07-16T04:58:55.721Z,6.80
2018-07-16T05:01:24.376Z,6.77
2018-07-16T05:03:53.112Z,5.97
2018-07-16T05:06:21.748Z,6.40
2018-07-16T05:08:50.354Z,6.10
2018-07-16T05:11:19.006Z,6.50
2018-07-16T05:13:47.552Z,7.10
2018-07-16T05:16:16.380Z,7.20
2018-07-16T05:18:44.967Z,7.00
2018-07-16T05:21:13.524Z,6.33
2018-07-16T05:23:42.144Z,6.30
2018-07-16T05:26:10.653Z,6.63
2018-07-16T05:28:39.240Z,7.57
2018-07-16T05:31:07.800Z,6.40
2018-07-16T05:33:36.376Z,7.20
2018-07-16T05:36:05.024Z,7.13
2018-07-16T05:38:33.624Z,7.53
2018-07-16T05:41:02.352Z,7.10
2018-07-16T05:43:30.995Z,6.70
2018-07-16T05:45:59.600Z,6.17
2018-07-16T05:48:28.233Z,6.47
2018-07-16T05:50:56.762Z,7.03
2018-07-16T05:53:25.556Z,6.57
2018-07-16T05:55:54.081Z,7.93
2018-07-16T05:58:22.652Z,6.60
2018-07-16T06:00:51.302Z,5.90
2018-07-16T06:03:19.837Z,6.87
2018-07-16T06:05:48.926Z,6.27
2018-07-16T06:08:17.470Z,7.07
2018-07-16T06:10:46.013Z,6.93
2018-07-16T06:13:14.597Z,6.83
2018-07-16T06:15:43.177Z,7.50
2018-07-16T06:18:12.008Z,6.20
2018-07-16T06:20:40.564Z,6.80
2018-07-16T06:23:09.132Z,6.30
2018-07-16T06:25:37.764Z,6.00
2018-07-16T06:28:06.680Z,6.13
2018-07-16T06:30:35.500Z,6.57
2018-07-16T06:33:04.101Z,6.53
2018-07-16T06:35:32.824Z,5.23
2018-07-16T06:38:01.485Z,6.57
2018-07-16T06:40:30.175Z,6.83
2018-07-16T06:42:59.096Z,6.10
2018-07-16T06:45:27.782Z,5.70
2018-07-16T06:47:56.563Z,5.90
2018-07-16T06:50:25.069Z,6.40
2018-07-16T06:52:53.657Z,4.93
2018-07-16T06:55:22.314Z,6.43
2018-07-16T06:57:50.976Z,5.67
2018-07-16T07:00:19.649Z,5.83
2018-07-16T07:02:48.285Z,5.50
2018-07-16T07:05:16.828Z,5.80
2018-07-16T07:07:45.572Z,6.93
2018-07-16T07:10:14.163Z,5.83
2018-07-16T07:12:42.738Z,4.97
2018-07-16T07:15:11.464Z,5.73
2018-07-16T07:17:40.340Z,5.57
2018-07-16T07:20:09.580Z,5.73
2018-07-16T07:22:38.124Z,5.00
2018-07-16T07:25:07.111Z,4.73
2018-07-16T07:27:35.692Z,4.77
2018-07-16T07:30:04.302Z,4.20
2018-07-16T07:32:32.897Z,4.57
2018-07-16T07:35:01.525Z,4.63
2018-07-16T07:37:30.073Z,4.20
2018-07-16T07:39:58.688Z,4.70
2018-07-16T07:42:27.344Z,4.80
2018-07-16T07:44:56.484Z,4.60
2018-07-16T07:47:25.060Z,4.80
2018-07-16T07:49:53.612Z,4.10
2018-07-16T07:52:22.233Z,3.87
2018-07-16T07:54:51.040Z,4.40
2018-07-16T07:57:19.653Z,4.17
2018-07-16T07:59:48.208Z,4.53
2018-07-16T08:02:16.812Z,4.20
2018-07-16T08:04:45.480Z,4.03
2018-07-16T08:07:14.528Z,5.00
2018-07-16T08:09:44.160Z,4.50
2018-07-16T08:12:13.672Z,3.60
2018-07-16T08:14:44.030Z,4.03
2018-07-16T08:17:12.796Z,4.47
2018-07-16T08:19:41.516Z,4.10
2018-07-16T08:22:10.245Z,4.40
2018-07-16T08:24:38.873Z,3.83
2018-07-16T08:27:07.535Z,3.67
2018-07-16T08:29:36.108Z,4.50
2018-07-16T08:32:04.632Z,4.00
2018-07-16T08:34:33.359Z,4.30
2018-07-16T08:37:01.968Z,3.57
2018-07-16T08:39:30.813Z,3.67
2018-07-16T08:41:59.472Z,4.10
2018-07-16T08:44:28.064Z,4.60
2018-07-16T08:46:56.597Z,4.60
2018-07-16T08:49:25.172Z,4.00
2018-07-16T08:51:54.013Z,3.50
2018-07-16T08:54:22.549Z,4.30
2018-07-16T08:56:51.137Z,3.90
2018-07-16T08:59:19.807Z,4.70
2018-07-16T09:01:48.413Z,3.80
2018-07-16T09:04:17.084Z,3.90
2018-07-16T09:06:45.637Z,3.80
2018-07-16T09:09:14.221Z,5.07
2018-07-16T09:11:42.745Z,3.67
2018-07-16T09:14:11.308Z,4.03
2018-07-16T09:16:40.180Z,5.30
2018-07-16T09:19:08.765Z,5.90
2018-07-16T09:21:37.536Z,5.10
2018-07-16T09:24:06.144Z,5.13
2018-07-16T09:26:34.713Z,4.47
2018-07-16T09:29:03.232Z,4.50
2018-07-16T09:31:31.775Z,4.43
2018-07-16T09:34:00.304Z,4.63
2018-07-16T09:36:28.946Z,4.30
2018-07-16T09:38:57.627Z,4.10
2018-07-16T09:41:26.278Z,3.50
2018-07-16T09:43:55.107Z,4.10
2018-07-16T09:46:23.679Z,3.80
2018-07-16T09:48:52.302Z,4.30
2018-07-16T09:51:20.897Z,3.70
2018-07-16T09:53:49.649Z,4.13
2018-07-16T09:56:18.295Z,3.83
2018-07-16T09:58:46.888Z,3.50
2018-07-16T10:01:20.720Z,4.77
2018-07-16T10:03:49.280Z,4.50
2018-07-16T10:06:17.872Z,4.20
2018-07-16T10:08:46.508Z,4.57
2018-07-16T10:11:15.101Z,4.83
2018-07-16T10:13:43.616Z,4.30
2018-07-16T10:16:12.305Z,3.40
2018-07-16T10:18:41.128Z,3.60
2018-07-16T10:21:09.697Z,4.20
2018-07-16T10:23:38.238Z,3.87
2018-07-16T10:26:07.120Z,3.70
2018-07-16T10:28:35.694Z,3.80
2018-07-16T10:31:04.251Z,3.47
2018-07-16T10:33:32.727Z,3.70
2018-07-16T10:36:01.196Z,3.90
2018-07-16T10:38:29.619Z,3.33
2018-07-16T10:40:58.079Z,2.93
2018-07-16T10:43:26.871Z,2.70
2018-07-16T10:45:55.505Z,3.30
2018-07-16T10:48:23.999Z,3.43
2018-07-16T10:50:52.539Z,3.17
2018-07-16T10:53:21.007Z,3.97
2018-07-16T10:55:49.736Z,3.97
2018-07-16T10:58:18.150Z,3.40
2018-07-16T11:00:46.647Z,3.57
2018-07-16T11:03:15.088Z,3.70
2018-07-16T11:05:43.527Z,4.60
2018-07-16T11:08:12.059Z,3.83
2018-07-16T11:10:40.508Z,4.23
2018-07-16T11:13:08.939Z,2.80
2018-07-16T11:15:37.412Z,3.23
2018-07-16T11:18:05.844Z,4.50
2018-07-16T11:20:34.279Z,3.13
2018-07-16T11:23:02.691Z,3.60
2018-07-16T11:25:31.146Z,2.80
2018-07-16T11:27:59.556Z,2.20
2018-07-16T11:30:28.055Z,2.90
2018-07-16T11:32:56.487Z,3.17
2018-07-16T11:35:25.033Z,3.10
2018-07-16T11:37:53.428Z,3.27
2018-07-16T11:40:21.943Z,3.83
2018-07-16T11:42:50.455Z,3.53
2018-07-16T11:45:18.948Z,3.37
2018-07-16T11:47:47.379Z,2.87
2018-07-16T11:50:15.833Z,2.97
2018-07-16T11:52:44.351Z,3.90
2018-07-16T11:55:12.844Z,3.17
2018-07-16T11:57:41.335Z,3.57
2018-07-16T12:00:09.808Z,3.60
2018-07-16T12:02:38.399Z,3.57
2018-07-16T12:05:06.809Z,2.53
2018-07-16T12:07:35.220Z,3.70
2018-07-16T12:10:03.735Z,2.77
2018-07-16T12:12:32.171Z,2.80
2018-07-16T12:15:00.820Z,3.27
2018-07-16T12:17:29.209Z,2.43
2018-07-16T12:19:57.638Z,3.17
2018-07-16T12:22:26.171Z,2.50
2018-07-16T12:24:54.607Z,2.33
2018-07-16T12:27:23.058Z,2.40
2018-07-16T12:29:51.620Z,2.07
2018-07-16T12:32:20.215Z,2.33
2018-07-16T12:34:48.708Z,2.00
2018-07-16T12:37:17.103Z,2.00
2018-07-16T12:39:45.683Z,1.93
2018-07-16T12:42:14.188Z,2.27
2018-07-16T12:44:42.667Z,2.30
2018-07-16T12:47:11.301Z,2.13
2018-07-16T12:49:39.691Z,2.20
2018-07-16T12:52:08.519Z,2.07
2018-07-16T12:54:36.963Z,1.70
2018-07-16T12:57:05.481Z,1.70
2018-07-16T12:59:34.071Z,2.43
2018-07-16T13:02:02.559Z,2.00
2018-07-16T13:04:31.311Z,2.20
2018-07-16T13:06:59.731Z,2.30
2018-07-16T13:09:28.159Z,2.20
2018-07-16T13:11:56.695Z,1.97
2018-07-16T13:14:25.163Z,1.90
2018-07-16T13:16:53.673Z,2.13
2018-07-16T13:19:22.108Z,2.07
2018-07-16T13:21:50.617Z,1.93
2018-07-16T13:24:19.049Z,2.40
2018-07-16T13:26:47.451Z,1.77
2018-07-16T13:29:16.255Z,2.10
2018-07-16T13:31:44.915Z,1.77
2018-07-16T13:34:13.492Z,2.60
2018-07-16T13:36:41.948Z,1.73
2018-07-16T13:39:11.227Z,2.00
2018-07-16T13:41:39.859Z,1.87
2018-07-16T13:44:08.295Z,1.93
2018-07-16T13:46:36.821Z,1.70
2018-07-16T13:49:05.371Z,2.20
2018-07-16T13:51:33.876Z,2.20
2018-07-16T13:54:02.595Z,2.40
2018-07-16T13:56:31.091Z,1.83
2018-07-16T13:58:59.635Z,2.07
2018-07-16T14:01:28.228Z,2.30
2018-07-16T14:03:56.687Z,1.97
2018-07-16T14:06:25.327Z,2.33
2018-07-16T14:08:53.792Z,1.80
2018-07-16T14:11:22.233Z,1.80
2018-07-16T14:13:50.687Z,2.20
2018-07-16T14:16:19.251Z,2.37
2018-07-16T14:18:47.728Z,2.27
2018-07-16T14:21:16.162Z,2.07
2018-07-16T14:23:44.675Z,2.27
2018-07-16T14:26:13.096Z,2.40
2018-07-16T14:28:41.582Z,1.47
2018-07-16T14:31:10.469Z,2.00
2018-07-16T14:33:38.966Z,1.83
2018-07-16T14:36:07.663Z,2.50
2018-07-16T14:38:36.179Z,2.10
2018-07-16T14:41:04.815Z,2.30
2018-07-16T14:43:33.303Z,3.10
2018-07-16T14:46:01.751Z,2.70
2018-07-16T14:48:30.247Z,3.00
2018-07-16T14:50:58.885Z,2.30
2018-07-16T14:53:27.363Z,2.67
2018-07-16T14:55:55.821Z,2.63
2018-07-16T14:58:24.331Z,2.43
2018-07-16T15:00:52.727Z,2.37
2018-07-16T15:03:21.914Z,3.33
2018-07-16T15:05:50.810Z,3.23
2018-07-16T15:08:19.503Z,2.50
2018-07-16T15:10:48.019Z,2.37
2018-07-16T15:13:16.511Z,2.60
2018-07-16T15:15:44.971Z,2.27
2018-07-16T15:18:13.513Z,2.47
2018-07-16T15:20:42.559Z,2.00
2018-07-16T15:23:10.902Z,2.10
2018-07-16T15:25:39.403Z,2.20
2018-07-16T15:28:07.923Z,2.10
2018-07-16T15:30:36.516Z,2.30
2018-07-16T15:33:05.035Z,2.57
2018-07-16T15:35:33.515Z,2.30
2018-07-16T15:38:02.062Z,1.90
2018-07-16T15:40:30.991Z,2.27
2018-07-16T15:42:59.924Z,2.20
2018-07-16T15:45:28.667Z,2.30
2018-07-16T15:47:57.179Z,2.27
2018-07-16T15:50:25.575Z,2.03
2018-07-16T15:52:54.085Z,1.80
2018-07-16T15:55:22.547Z,2.53
2018-07-16T15:57:51.429Z,2.20
2018-07-16T16:00:19.867Z,2.10
2018-07-16T16:02:48.367Z,2.40
2018-07-16T16:05:17.039Z,2.50
2018-07-16T16:07:45.521Z,2.10
2018-07-16T16:10:14.028Z,1.80
2018-07-16T16:12:42.531Z,2.37
2018-07-16T16:15:10.938Z,2.70
2018-07-16T16:17:39.336Z,1.97
2018-07-16T16:20:07.845Z,1.73
2018-07-16T16:22:36.223Z,2.50
2018-07-16T16:25:04.683Z,2.43
2018-07-16T16:27:33.368Z,2.27
2018-07-16T16:30:01.772Z,2.33
2018-07-16T16:32:30.167Z,2.60
2018-07-16T16:34:58.684Z,2.43
2018-07-16T16:37:27.095Z,2.40
2018-07-16T16:39:55.679Z,1.80
2018-07-16T16:42:24.274Z,2.43
2018-07-16T16:44:52.685Z,2.33
2018-07-16T16:47:21.127Z,1.93
2018-07-16T16:49:49.663Z,2.60
2018-07-16T16:52:18.091Z,2.60
2018-07-16T16:54:46.503Z,2.80
2018-07-16T16:57:15.029Z,2.20
2018-07-16T16:59:43.494Z,2.77
2018-07-16T17:02:12.089Z,2.43
2018-07-16T17:04:40.569Z,2.13
2018-07-16T17:07:09.121Z,2.10
2018-07-16T17:09:37.595Z,2.60
2018-07-16T17:12:06.088Z,2.60
2018-07-16T17:14:34.615Z,2.80
2018-07-16T17:17:03.394Z,2.10
2018-07-16T17:19:31.902Z,2.83
2018-07-16T17:22:00.657Z,2.47
2018-07-16T17:24:29.166Z,1.97
2018-07-16T17:26:57.720Z,2.77
2018-07-16T17:29:26.231Z,2.33
2018-07-16T17:31:54.795Z,1.87
2018-07-16T17:34:23.457Z,2.00
2018-07-16T17:36:52.075Z,2.63
2018-07-16T17:39:20.600Z,2.67
2018-07-16T17:41:49.118Z,2.10
2018-07-16T17:44:17.544Z,2.07
2018-07-16T17:46:46.899Z,2.47
2018-07-16T17:49:15.692Z,2.63
2018-07-16T17:51:44.136Z,2.33
2018-07-16T17:54:12.629Z,2.80
2018-07-16T17:56:41.138Z,2.13
2018-07-16T17:59:09.572Z,2.57
2018-07-16T18:01:38.138Z,3.40
2018-07-16T18:04:06.715Z,2.27
2018-07-16T18:06:35.175Z,1.80
2018-07-16T18:09:03.962Z,2.10
2018-07-16T18:11:32.537Z,2.37
2018-07-16T18:14:00.999Z,2.37
2018-07-16T18:16:29.751Z,2.60
2018-07-16T18:18:58.347Z,2.50
2018-07-16T18:21:26.783Z,2.23
2018-07-16T18:23:55.297Z,2.57
2018-07-16T18:26:23.783Z,2.30
2018-07-16T18:28:52.731Z,3.10
2018-07-16T18:31:21.174Z,2.87
2018-07-16T18:33:49.595Z,2.67
2018-07-16T18:36:18.043Z,2.67
2018-07-16T18:38:46.531Z,2.30
2018-07-16T18:41:15.219Z,2.47
2018-07-16T18:43:43.616Z,2.70
2018-07-16T18:46:12.141Z,2.13
2018-07-16T18:48:40.639Z,2.90
2018-07-16T18:51:09.215Z,2.47
2018-07-16T18:53:37.695Z,2.00
2018-07-16T18:56:06.112Z,2.00
2018-07-16T18:58:34.582Z,2.17
2018-07-16T19:01:03.004Z,2.47
2018-07-16T19:03:31.539Z,2.07
2018-07-16T19:06:00.156Z,2.77
2018-07-16T19:08:28.631Z,2.33
2018-07-16T19:10:57.051Z,2.70
2018-07-16T19:13:25.501Z,1.77
2018-07-16T19:15:53.955Z,2.30
2018-07-16T19:18:22.386Z,2.77
2018-07-16T19:20:50.843Z,2.30
2018-07-16T19:23:19.325Z,2.70
2018-07-16T19:25:47.831Z,2.13
2018-07-16T19:28:16.376Z,2.67
2018-07-16T19:30:45.218Z,3.83
2018-07-16T19:33:13.732Z,3.80
2018-07-16T19:35:42.278Z,2.90
2018-07-16T19:38:10.769Z,3.17
2018-07-16T19:40:39.203Z,3.53
2018-07-16T19:43:07.965Z,3.47
2018-07-16T19:45:36.507Z,4.07
2018-07-16T19:48:05.021Z,3.90
2018-07-16T19:50:33.468Z,4.00
2018-07-16T19:53:01.969Z,4.30
2018-07-16T19:55:30.511Z,2.67
2018-07-16T19:57:59.034Z,3.30
2018-07-16T20:00:27.488Z,3.30
2018-07-16T20:02:55.991Z,3.10
2018-07-16T20:05:24.381Z,4.80
2018-07-16T20:07:53.016Z,3.77
2018-07-16T20:10:21.498Z,3.87
2018-07-16T20:12:49.936Z,3.83
2018-07-16T20:15:19.696Z,4.23
2018-07-16T20:17:48.055Z,3.73
2018-07-16T20:20:16.538Z,3.33
2018-07-16T20:22:45.063Z,4.37
2018-07-16T20:25:13.480Z,3.77
2018-07-16T20:27:42.035Z,3.53
2018-07-16T20:30:10.644Z,3.30
2018-07-16T20:32:39.155Z,3.40
2018-07-16T20:35:07.771Z,2.80
2018-07-16T20:37:36.248Z,3.50
2018-07-16T20:40:05.040Z,3.53
2018-07-16T20:42:33.433Z,2.67
2018-07-16T20:45:01.916Z,3.60
2018-07-16T20:47:30.371Z,3.77
2018-07-16T20:49:59.178Z,2.63
2018-07-16T20:52:27.664Z,3.47
2018-07-16T20:54:56.063Z,3.03
2018-07-16T20:57:24.595Z,3.47
2018-07-16T20:59:53.012Z,3.13
2018-07-16T21:02:21.627Z,3.00
2018-07-16T21:04:50.066Z,3.17
2018-07-16T21:07:18.524Z,2.83
2018-07-16T21:09:46.956Z,2.80
2018-07-16T21:12:15.379Z,3.53
2018-07-16T21:14:44.014Z,2.63
2018-07-16T21:17:12.563Z,3.40
2018-07-16T21:19:41.023Z,4.00
2018-07-16T21:22:09.525Z,3.30
2018-07-16T21:24:38.008Z,3.27
2018-07-16T21:27:06.503Z,3.30
2018-07-16T21:29:34.991Z,3.30
2018-07-16T21:32:03.444Z,3.67
2018-07-16T21:34:31.976Z,2.60
2018-07-16T21:37:00.460Z,3.77
2018-07-16T21:39:29.295Z,3.13
2018-07-16T21:41:57.764Z,3.30
2018-07-16T21:44:26.173Z,2.70
2018-07-16T21:46:54.751Z,4.10
2018-07-16T21:49:23.342Z,3.13
2018-07-16T21:51:51.859Z,2.73
2018-07-16T21:54:20.346Z,3.80
2018-07-16T21:56:48.950Z,2.80
2018-07-16T21:59:17.443Z,3.73
2018-07-16T22:01:46.076Z,2.70
2018-07-16T22:04:14.910Z,3.27
2018-07-16T22:06:43.416Z,3.13
2018-07-16T22:09:11.911Z,2.70
2018-07-16T22:11:40.420Z,3.50
2018-07-16T22:14:08.824Z,3.50
2018-07-16T22:16:37.671Z,3.37
2018-07-16T22:19:06.352Z,3.20
2018-07-16T22:21:34.816Z,2.70
2018-07-16T22:24:03.283Z,4.00
2018-07-16T22:26:31.787Z,3.70
2018-07-16T22:29:00.295Z,4.20
2018-07-16T22:31:28.756Z,3.10
2018-07-16T22:33:57.181Z,3.63
2018-07-16T22:36:25.631Z,3.73
2018-07-16T22:38:54.187Z,4.00
2018-07-16T22:41:22.611Z,4.03
2018-07-16T22:43:50.995Z,3.70
2018-07-16T22:46:19.455Z,4.00
2018-07-16T22:48:48.052Z,3.50
2018-07-16T22:51:16.784Z,4.33
2018-07-16T22:53:45.391Z,4.00
2018-07-16T22:56:13.951Z,3.73
2018-07-16T22:58:42.410Z,3.63
2018-07-16T23:01:10.971Z,3.60
2018-07-16T23:03:39.391Z,3.50
2018-07-16T23:06:07.970Z,3.37
2018-07-16T23:08:36.387Z,3.77
2018-07-16T23:11:04.899Z,2.90
2018-07-16T23:13:33.343Z,4.00
2018-07-16T23:16:01.863Z,3.90
2018-07-16T23:18:30.372Z,3.67
2018-07-16T23:20:58.860Z,3.77
2018-07-16T23:23:28.165Z,3.50
2018-07-16T23:25:56.611Z,4.20
2018-07-16T23:28:25.045Z,3.50
2018-07-16T23:30:53.763Z,3.83
2018-07-16T23:33:22.252Z,3.80
2018-07-16T23:35:50.768Z,4.00
2018-07-16T23:38:19.252Z,3.77
2018-07-16T23:40:47.719Z,4.10
2018-07-16T23:43:16.231Z,3.70
2018-07-16T23:45:45.032Z,4.27
2018-07-16T23:48:13.523Z,4.60
2018-07-16T23:50:42.036Z,4.33
2018-07-16T23:53:10.765Z,3.80
2018-07-16T23:55:39.241Z,3.90
2018-07-16T23:58:07.683Z,4.00
